sensor_id;sensor_type;location;lat;lon;timestamp;temperature;humidity
46091;DHT22;31826;53.572;10.170;2023-05-07T00:01:17;8.60;99.90
46091;DHT22;31826;53.572;10.170;2023-05-07T00:03:43;8.60;99.90
46091;DHT22;31826;53.572;10.170;2023-05-07T00:06:08;8.60;99.90
46091;DHT22;31826;53.572;10.170;2023-05-07T00:08:35;8.60;99.90
46091;DHT22;31826;53.572;10.170;2023-05-07T00:11:01;8.60;99.90
46091;DHT22;31826;53.572;10.170;2023-05-07T00:13:26;8.60;99.90
46091;DHT22;31826;53.572;10.170;2023-05-07T00:15:52;8.60;99.90
46091;DHT22;31826;53.572;10.170;2023-05-07T00:18:18;8.60;99.90
46091;DHT22;31826;53.572;10.170;2023-05-07T00:20:46;8.60;99.90
46091;DHT22;31826;53.572;10.170;2023-05-07T00:23:12;8.60;99.90
46091;DHT22;31826;53.572;10.170;2023-05-07T00:25:37;8.70;99.90
46091;DHT22;31826;53.572;10.170;2023-05-07T00:28:03;8.70;99.90
46091;DHT22;31826;53.572;10.170;2023-05-07T00:30:29;8.60;99.90
46091;DHT22;31826;53.572;10.170;2023-05-07T00:32:55;8.60;99.90
46091;DHT22;31826;53.572;10.170;2023-05-07T00:35:20;8.70;99.90
46091;DHT22;31826;53.572;10.170;2023-05-07T00:37:46;8.70;99.90
46091;DHT22;31826;53.572;10.170;2023-05-07T00:40:13;8.60;99.90
46091;DHT22;31826;53.572;10.170;2023-05-07T00:42:39;8.60;99.90
46091;DHT22;31826;53.572;10.170;2023-05-07T00:45:06;8.60;99.90
46091;DHT22;31826;53.572;10.170;2023-05-07T00:47:33;8.60;99.90
46091;DHT22;31826;53.572;10.170;2023-05-07T00:49:58;8.60;99.90
46091;DHT22;31826;53.572;10.170;2023-05-07T00:52:26;8.60;99.90
46091;DHT22;31826;53.572;10.170;2023-05-07T00:54:52;8.60;99.90
46091;DHT22;31826;53.572;10.170;2023-05-07T00:57:18;8.60;99.90
46091;DHT22;31826;53.572;10.170;2023-05-07T00:59:44;8.60;99.90
46091;DHT22;31826;53.572;10.170;2023-05-07T01:02:10;8.70;99.90
46091;DHT22;31826;53.572;10.170;2023-05-07T01:04:36;8.70;99.90
46091;DHT22;31826;53.572;10.170;2023-05-07T01:07:02;8.60;99.90
46091;DHT22;31826;53.572;10.170;2023-05-07T01:09:29;8.60;99.90
46091;DHT22;31826;53.572;10.170;2023-05-07T01:11:55;8.60;99.90
46091;DHT22;31826;53.572;10.170;2023-05-07T01:14:22;8.60;99.90
46091;DHT22;31826;53.572;10.170;2023-05-07T01:16:48;8.60;99.90
46091;DHT22;31826;53.572;10.170;2023-05-07T01:19:18;8.60;99.90
46091;DHT22;31826;53.572;10.170;2023-05-07T01:21:47;8.60;99.90
46091;DHT22;31826;53.572;10.170;2023-05-07T01:24:14;8.60;99.90
46091;DHT22;31826;53.572;10.170;2023-05-07T01:26:41;8.60;99.90
46091;DHT22;31826;53.572;10.170;2023-05-07T01:29:06;8.60;99.90
46091;DHT22;31826;53.572;10.170;2023-05-07T01:31:34;8.50;99.90
46091;DHT22;31826;53.572;10.170;2023-05-07T01:34:01;8.60;99.90
46091;DHT22;31826;53.572;10.170;2023-05-07T01:36:28;8.60;99.90
46091;DHT22;31826;53.572;10.170;2023-05-07T01:38:55;8.60;99.90
46091;DHT22;31826;53.572;10.170;2023-05-07T01:41:23;8.60;99.90
46091;DHT22;31826;53.572;10.170;2023-05-07T01:43:50;8.60;99.90
46091;DHT22;31826;53.572;10.170;2023-05-07T01:46:18;8.50;99.90
46091;DHT22;31826;53.572;10.170;2023-05-07T01:48:45;8.50;99.90
46091;DHT22;31826;53.572;10.170;2023-05-07T01:51:11;8.60;99.90
46091;DHT22;31826;53.572;10.170;2023-05-07T01:53:39;8.60;99.90
46091;DHT22;31826;53.572;10.170;2023-05-07T01:56:06;8.60;99.90
46091;DHT22;31826;53.572;10.170;2023-05-07T01:58:32;8.60;99.90
46091;DHT22;31826;53.572;10.170;2023-05-07T02:00:57;8.50;99.90
46091;DHT22;31826;53.572;10.170;2023-05-07T02:03:23;8.60;99.90
46091;DHT22;31826;53.572;10.170;2023-05-07T02:05:49;8.60;99.90
46091;DHT22;31826;53.572;10.170;2023-05-07T02:08:14;8.60;99.90
46091;DHT22;31826;53.572;10.170;2023-05-07T02:10:40;8.60;99.90
46091;DHT22;31826;53.572;10.170;2023-05-07T02:13:06;8.60;99.90
46091;DHT22;31826;53.572;10.170;2023-05-07T02:15:32;8.60;99.90
46091;DHT22;31826;53.572;10.170;2023-05-07T02:20:25;8.60;99.90
46091;DHT22;31826;53.572;10.170;2023-05-07T02:22:50;8.60;99.90
46091;DHT22;31826;53.572;10.170;2023-05-07T02:25:16;8.50;99.90
46091;DHT22;31826;53.572;10.170;2023-05-07T02:27:42;8.50;99.90
46091;DHT22;31826;53.572;10.170;2023-05-07T02:30:08;8.50;99.90
46091;DHT22;31826;53.572;10.170;2023-05-07T02:32:33;8.50;99.90
46091;DHT22;31826;53.572;10.170;2023-05-07T02:34:59;8.50;99.90
46091;DHT22;31826;53.572;10.170;2023-05-07T02:37:25;8.50;99.90
46091;DHT22;31826;53.572;10.170;2023-05-07T02:39:50;8.50;99.90
46091;DHT22;31826;53.572;10.170;2023-05-07T02:42:16;8.50;99.90
46091;DHT22;31826;53.572;10.170;2023-05-07T02:44:42;8.40;99.90
46091;DHT22;31826;53.572;10.170;2023-05-07T02:47:07;8.50;99.90
46091;DHT22;31826;53.572;10.170;2023-05-07T02:49:34;8.50;99.90
46091;DHT22;31826;53.572;10.170;2023-05-07T02:52:00;8.40;99.90
46091;DHT22;31826;53.572;10.170;2023-05-07T02:54:26;8.40;99.90
46091;DHT22;31826;53.572;10.170;2023-05-07T02:56:51;8.40;99.90
46091;DHT22;31826;53.572;10.170;2023-05-07T02:59:17;8.40;99.90
46091;DHT22;31826;53.572;10.170;2023-05-07T03:01:43;8.50;99.90
46091;DHT22;31826;53.572;10.170;2023-05-07T03:04:10;8.40;99.90
46091;DHT22;31826;53.572;10.170;2023-05-07T03:06:36;8.40;99.90
46091;DHT22;31826;53.572;10.170;2023-05-07T03:09:02;8.30;99.90
46091;DHT22;31826;53.572;10.170;2023-05-07T03:11:28;8.40;99.90
46091;DHT22;31826;53.572;10.170;2023-05-07T03:13:54;8.40;99.90
46091;DHT22;31826;53.572;10.170;2023-05-07T03:16:19;8.40;99.90
46091;DHT22;31826;53.572;10.170;2023-05-07T03:18:45;8.50;99.90
46091;DHT22;31826;53.572;10.170;2023-05-07T03:21:11;8.50;99.90
46091;DHT22;31826;53.572;10.170;2023-05-07T03:23:37;8.40;99.90
46091;DHT22;31826;53.572;10.170;2023-05-07T03:26:02;8.50;99.90
46091;DHT22;31826;53.572;10.170;2023-05-07T03:28:28;8.50;99.90
46091;DHT22;31826;53.572;10.170;2023-05-07T03:30:54;8.50;99.90
46091;DHT22;31826;53.572;10.170;2023-05-07T03:33:20;8.50;99.90
46091;DHT22;31826;53.572;10.170;2023-05-07T03:35:45;8.50;99.90
46091;DHT22;31826;53.572;10.170;2023-05-07T03:38:11;8.50;99.90
46091;DHT22;31826;53.572;10.170;2023-05-07T03:40:37;8.50;99.90
46091;DHT22;31826;53.572;10.170;2023-05-07T03:43:02;8.50;99.90
46091;DHT22;31826;53.572;10.170;2023-05-07T03:45:28;8.60;99.90
46091;DHT22;31826;53.572;10.170;2023-05-07T03:47:54;8.60;99.90
46091;DHT22;31826;53.572;10.170;2023-05-07T03:50:20;8.50;99.90
46091;DHT22;31826;53.572;10.170;2023-05-07T03:52:45;8.60;99.90
46091;DHT22;31826;53.572;10.170;2023-05-07T03:55:11;8.50;99.90
46091;DHT22;31826;53.572;10.170;2023-05-07T03:57:37;8.50;99.90
46091;DHT22;31826;53.572;10.170;2023-05-07T04:00:03;8.50;99.90
46091;DHT22;31826;53.572;10.170;2023-05-07T04:02:30;8.50;99.90
46091;DHT22;31826;53.572;10.170;2023-05-07T04:04:55;8.50;99.90
46091;DHT22;31826;53.572;10.170;2023-05-07T04:07:22;8.50;99.90
46091;DHT22;31826;53.572;10.170;2023-05-07T04:09:48;8.50;99.90
46091;DHT22;31826;53.572;10.170;2023-05-07T04:12:13;8.50;99.90
46091;DHT22;31826;53.572;10.170;2023-05-07T04:14:39;8.50;99.90
46091;DHT22;31826;53.572;10.170;2023-05-07T04:17:05;8.60;99.90
46091;DHT22;31826;53.572;10.170;2023-05-07T04:19:33;8.60;99.90
46091;DHT22;31826;53.572;10.170;2023-05-07T04:21:59;8.60;99.90
46091;DHT22;31826;53.572;10.170;2023-05-07T04:24:24;8.60;99.90
46091;DHT22;31826;53.572;10.170;2023-05-07T04:26:50;8.60;99.90
46091;DHT22;31826;53.572;10.170;2023-05-07T04:29:16;8.60;99.90
46091;DHT22;31826;53.572;10.170;2023-05-07T04:31:42;8.50;99.90
46091;DHT22;31826;53.572;10.170;2023-05-07T04:34:10;8.60;99.90
46091;DHT22;31826;53.572;10.170;2023-05-07T04:36:37;8.60;99.90
46091;DHT22;31826;53.572;10.170;2023-05-07T04:39:04;8.50;99.90
46091;DHT22;31826;53.572;10.170;2023-05-07T04:41:29;8.60;99.90
46091;DHT22;31826;53.572;10.170;2023-05-07T04:43:55;8.60;99.90
46091;DHT22;31826;53.572;10.170;2023-05-07T04:46:22;8.60;99.90
46091;DHT22;31826;53.572;10.170;2023-05-07T04:48:49;8.60;99.90
46091;DHT22;31826;53.572;10.170;2023-05-07T04:51:15;8.60;99.90
46091;DHT22;31826;53.572;10.170;2023-05-07T04:53:41;8.60;99.90
46091;DHT22;31826;53.572;10.170;2023-05-07T04:56:08;8.60;99.90
46091;DHT22;31826;53.572;10.170;2023-05-07T04:58:34;8.60;99.90
46091;DHT22;31826;53.572;10.170;2023-05-07T05:01:00;8.60;99.90
46091;DHT22;31826;53.572;10.170;2023-05-07T05:03:25;8.60;99.90
46091;DHT22;31826;53.572;10.170;2023-05-07T05:05:52;8.60;99.90
46091;DHT22;31826;53.572;10.170;2023-05-07T05:08:18;8.60;99.90
46091;DHT22;31826;53.572;10.170;2023-05-07T05:10:44;8.70;99.90
46091;DHT22;31826;53.572;10.170;2023-05-07T05:13:10;8.70;99.90
46091;DHT22;31826;53.572;10.170;2023-05-07T05:15:38;8.70;99.90
46091;DHT22;31826;53.572;10.170;2023-05-07T05:18:04;8.80;99.90
46091;DHT22;31826;53.572;10.170;2023-05-07T05:20:30;8.80;99.90
46091;DHT22;31826;53.572;10.170;2023-05-07T05:22:56;8.80;99.90
46091;DHT22;31826;53.572;10.170;2023-05-07T05:25:21;8.80;99.90
46091;DHT22;31826;53.572;10.170;2023-05-07T05:27:47;8.80;99.90
46091;DHT22;31826;53.572;10.170;2023-05-07T05:30:13;8.80;99.90
46091;DHT22;31826;53.572;10.170;2023-05-07T05:32:38;8.80;99.90
46091;DHT22;31826;53.572;10.170;2023-05-07T05:35:04;8.80;99.90
46091;DHT22;31826;53.572;10.170;2023-05-07T05:37:31;8.90;99.90
46091;DHT22;31826;53.572;10.170;2023-05-07T05:39:56;8.90;99.90
46091;DHT22;31826;53.572;10.170;2023-05-07T05:42:23;8.90;99.90
46091;DHT22;31826;53.572;10.170;2023-05-07T05:44:49;8.90;99.90
46091;DHT22;31826;53.572;10.170;2023-05-07T05:47:14;8.90;99.90
46091;DHT22;31826;53.572;10.170;2023-05-07T05:49:40;8.90;99.90
46091;DHT22;31826;53.572;10.170;2023-05-07T05:52:06;8.90;99.90
46091;DHT22;31826;53.572;10.170;2023-05-07T05:54:31;9.00;99.90
46091;DHT22;31826;53.572;10.170;2023-05-07T05:56:57;9.00;99.90
46091;DHT22;31826;53.572;10.170;2023-05-07T05:59:23;9.00;99.90
46091;DHT22;31826;53.572;10.170;2023-05-07T06:01:49;9.10;99.90
46091;DHT22;31826;53.572;10.170;2023-05-07T06:04:14;9.10;99.90
46091;DHT22;31826;53.572;10.170;2023-05-07T06:06:40;9.20;99.90
46091;DHT22;31826;53.572;10.170;2023-05-07T06:09:06;9.20;99.90
46091;DHT22;31826;53.572;10.170;2023-05-07T06:11:32;9.20;99.90
46091;DHT22;31826;53.572;10.170;2023-05-07T06:13:57;9.10;99.90
46091;DHT22;31826;53.572;10.170;2023-05-07T06:16:24;9.20;99.90
46091;DHT22;31826;53.572;10.170;2023-05-07T06:18:50;9.20;99.90
46091;DHT22;31826;53.572;10.170;2023-05-07T06:21:16;9.20;99.90
46091;DHT22;31826;53.572;10.170;2023-05-07T06:23:42;9.20;99.90
46091;DHT22;31826;53.572;10.170;2023-05-07T06:26:07;9.20;99.90
46091;DHT22;31826;53.572;10.170;2023-05-07T06:28:33;9.20;99.90
46091;DHT22;31826;53.572;10.170;2023-05-07T06:31:16;9.10;99.90
46091;DHT22;31826;53.572;10.170;2023-05-07T06:33:42;9.20;99.90
46091;DHT22;31826;53.572;10.170;2023-05-07T06:36:08;9.20;99.90
46091;DHT22;31826;53.572;10.170;2023-05-07T06:38:34;9.20;99.90
46091;DHT22;31826;53.572;10.170;2023-05-07T06:40:59;9.20;99.90
46091;DHT22;31826;53.572;10.170;2023-05-07T06:43:25;9.30;99.90
46091;DHT22;31826;53.572;10.170;2023-05-07T06:45:50;9.30;99.90
46091;DHT22;31826;53.572;10.170;2023-05-07T06:48:16;9.30;99.90
46091;DHT22;31826;53.572;10.170;2023-05-07T06:50:42;9.30;99.90
46091;DHT22;31826;53.572;10.170;2023-05-07T06:53:07;9.30;99.90
46091;DHT22;31826;53.572;10.170;2023-05-07T06:55:33;9.20;99.90
46091;DHT22;31826;53.572;10.170;2023-05-07T06:57:59;9.40;99.90
46091;DHT22;31826;53.572;10.170;2023-05-07T07:00:27;9.30;99.90
46091;DHT22;31826;53.572;10.170;2023-05-07T07:02:54;9.30;99.90
46091;DHT22;31826;53.572;10.170;2023-05-07T07:05:20;9.40;99.90
46091;DHT22;31826;53.572;10.170;2023-05-07T07:07:45;9.40;99.90
46091;DHT22;31826;53.572;10.170;2023-05-07T07:10:18;9.50;99.90
46091;DHT22;31826;53.572;10.170;2023-05-07T07:12:44;9.50;99.90
46091;DHT22;31826;53.572;10.170;2023-05-07T07:15:10;9.50;99.90
46091;DHT22;31826;53.572;10.170;2023-05-07T07:17:36;9.50;99.90
46091;DHT22;31826;53.572;10.170;2023-05-07T07:20:02;9.50;99.90
46091;DHT22;31826;53.572;10.170;2023-05-07T07:22:28;9.60;99.90
46091;DHT22;31826;53.572;10.170;2023-05-07T07:24:54;9.60;99.90
46091;DHT22;31826;53.572;10.170;2023-05-07T07:27:20;9.60;99.90
46091;DHT22;31826;53.572;10.170;2023-05-07T07:29:45;9.70;99.90
46091;DHT22;31826;53.572;10.170;2023-05-07T07:32:11;9.70;99.90
46091;DHT22;31826;53.572;10.170;2023-05-07T07:34:37;9.70;99.90
46091;DHT22;31826;53.572;10.170;2023-05-07T07:37:02;9.80;99.90
46091;DHT22;31826;53.572;10.170;2023-05-07T07:39:32;9.80;99.90
46091;DHT22;31826;53.572;10.170;2023-05-07T07:41:58;9.80;99.90
46091;DHT22;31826;53.572;10.170;2023-05-07T07:44:23;9.80;99.90
46091;DHT22;31826;53.572;10.170;2023-05-07T07:46:49;9.80;99.90
46091;DHT22;31826;53.572;10.170;2023-05-07T07:49:16;9.80;99.90
46091;DHT22;31826;53.572;10.170;2023-05-07T07:51:42;9.70;99.90
46091;DHT22;31826;53.572;10.170;2023-05-07T07:54:08;9.80;99.90
46091;DHT22;31826;53.572;10.170;2023-05-07T07:56:33;9.80;99.90
46091;DHT22;31826;53.572;10.170;2023-05-07T07:59:00;9.90;99.90
46091;DHT22;31826;53.572;10.170;2023-05-07T08:01:25;9.80;99.90
46091;DHT22;31826;53.572;10.170;2023-05-07T08:03:52;9.80;99.90
46091;DHT22;31826;53.572;10.170;2023-05-07T08:06:18;9.90;99.90
46091;DHT22;31826;53.572;10.170;2023-05-07T08:08:43;9.80;99.90
46091;DHT22;31826;53.572;10.170;2023-05-07T08:11:09;9.80;99.90
46091;DHT22;31826;53.572;10.170;2023-05-07T08:13:36;9.80;99.90
46091;DHT22;31826;53.572;10.170;2023-05-07T08:16:02;10.00;99.90
46091;DHT22;31826;53.572;10.170;2023-05-07T08:18:28;9.90;99.90
46091;DHT22;31826;53.572;10.170;2023-05-07T08:20:54;10.00;99.90
46091;DHT22;31826;53.572;10.170;2023-05-07T08:23:21;9.90;99.90
46091;DHT22;31826;53.572;10.170;2023-05-07T08:25:47;10.00;99.90
46091;DHT22;31826;53.572;10.170;2023-05-07T08:28:12;10.00;99.90
46091;DHT22;31826;53.572;10.170;2023-05-07T08:30:38;10.20;99.90
46091;DHT22;31826;53.572;10.170;2023-05-07T08:33:04;10.20;99.90
46091;DHT22;31826;53.572;10.170;2023-05-07T08:35:29;10.20;99.90
46091;DHT22;31826;53.572;10.170;2023-05-07T08:37:55;10.20;99.90
46091;DHT22;31826;53.572;10.170;2023-05-07T08:40:25;10.20;99.90
46091;DHT22;31826;53.572;10.170;2023-05-07T08:42:52;10.30;99.90
46091;DHT22;31826;53.572;10.170;2023-05-07T08:45:19;10.20;99.90
46091;DHT22;31826;53.572;10.170;2023-05-07T08:48:02;10.30;99.90
46091;DHT22;31826;53.572;10.170;2023-05-07T08:50:29;10.30;99.90
46091;DHT22;31826;53.572;10.170;2023-05-07T08:52:55;10.40;99.90
46091;DHT22;31826;53.572;10.170;2023-05-07T08:55:22;10.40;99.90
46091;DHT22;31826;53.572;10.170;2023-05-07T08:57:49;10.40;99.90
46091;DHT22;31826;53.572;10.170;2023-05-07T09:00:15;10.30;99.90
46091;DHT22;31826;53.572;10.170;2023-05-07T09:02:41;10.30;99.90
46091;DHT22;31826;53.572;10.170;2023-05-07T09:05:07;10.30;99.90
46091;DHT22;31826;53.572;10.170;2023-05-07T09:07:33;10.40;99.90
46091;DHT22;31826;53.572;10.170;2023-05-07T09:10:04;10.50;99.90
46091;DHT22;31826;53.572;10.170;2023-05-07T09:12:31;10.50;99.90
46091;DHT22;31826;53.572;10.170;2023-05-07T09:14:56;10.50;99.90
46091;DHT22;31826;53.572;10.170;2023-05-07T09:17:22;10.60;99.90
46091;DHT22;31826;53.572;10.170;2023-05-07T09:19:48;10.60;99.90
46091;DHT22;31826;53.572;10.170;2023-05-07T09:22:14;10.60;99.90
46091;DHT22;31826;53.572;10.170;2023-05-07T09:24:39;10.70;99.90
46091;DHT22;31826;53.572;10.170;2023-05-07T09:27:06;10.80;99.90
46091;DHT22;31826;53.572;10.170;2023-05-07T09:29:32;10.80;99.90
46091;DHT22;31826;53.572;10.170;2023-05-07T09:32:07;10.80;99.90
46091;DHT22;31826;53.572;10.170;2023-05-07T09:34:34;10.80;99.90
46091;DHT22;31826;53.572;10.170;2023-05-07T09:37:04;10.80;99.90
46091;DHT22;31826;53.572;10.170;2023-05-07T09:39:40;10.90;99.90
46091;DHT22;31826;53.572;10.170;2023-05-07T09:42:06;11.00;99.90
46091;DHT22;31826;53.572;10.170;2023-05-07T09:44:33;11.10;99.90
46091;DHT22;31826;53.572;10.170;2023-05-07T09:47:00;11.20;99.90
46091;DHT22;31826;53.572;10.170;2023-05-07T09:49:29;11.10;99.90
46091;DHT22;31826;53.572;10.170;2023-05-07T09:51:56;11.10;99.90
46091;DHT22;31826;53.572;10.170;2023-05-07T09:54:24;11.00;99.90
46091;DHT22;31826;53.572;10.170;2023-05-07T09:56:52;11.10;99.90
46091;DHT22;31826;53.572;10.170;2023-05-07T09:59:18;11.20;99.90
46091;DHT22;31826;53.572;10.170;2023-05-07T10:01:45;11.30;99.90
46091;DHT22;31826;53.572;10.170;2023-05-07T10:04:12;11.30;99.90
46091;DHT22;31826;53.572;10.170;2023-05-07T10:06:38;11.30;99.90
46091;DHT22;31826;53.572;10.170;2023-05-07T10:09:04;11.30;99.90
46091;DHT22;31826;53.572;10.170;2023-05-07T10:11:35;11.60;99.90
46091;DHT22;31826;53.572;10.170;2023-05-07T10:14:02;11.70;99.90
46091;DHT22;31826;53.572;10.170;2023-05-07T10:16:32;11.40;99.90
46091;DHT22;31826;53.572;10.170;2023-05-07T10:19:06;11.20;99.90
46091;DHT22;31826;53.572;10.170;2023-05-07T10:21:38;11.20;99.90
46091;DHT22;31826;53.572;10.170;2023-05-07T10:24:31;11.40;99.90
46091;DHT22;31826;53.572;10.170;2023-05-07T10:27:00;11.50;99.90
46091;DHT22;31826;53.572;10.170;2023-05-07T10:31:59;11.60;99.90
46091;DHT22;31826;53.572;10.170;2023-05-07T10:34:36;11.60;99.90
46091;DHT22;31826;53.572;10.170;2023-05-07T10:37:03;11.50;99.90
46091;DHT22;31826;53.572;10.170;2023-05-07T10:39:30;11.50;99.90
46091;DHT22;31826;53.572;10.170;2023-05-07T10:41:56;11.60;99.90
46091;DHT22;31826;53.572;10.170;2023-05-07T10:44:29;11.70;99.90
46091;DHT22;31826;53.572;10.170;2023-05-07T10:47:13;11.80;99.90
46091;DHT22;31826;53.572;10.170;2023-05-07T10:52:12;12.00;99.90
46091;DHT22;31826;53.572;10.170;2023-05-07T10:54:39;11.90;99.90
46091;DHT22;31826;53.572;10.170;2023-05-07T10:57:43;11.90;99.90
46091;DHT22;31826;53.572;10.170;2023-05-07T11:05:29;12.40;99.90
46091;DHT22;31826;53.572;10.170;2023-05-07T11:10:22;12.60;99.90
46091;DHT22;31826;53.572;10.170;2023-05-07T11:12:51;12.40;99.90
46091;DHT22;31826;53.572;10.170;2023-05-07T11:15:41;12.30;99.90
46091;DHT22;31826;53.572;10.170;2023-05-07T11:18:09;12.60;99.90
46091;DHT22;31826;53.572;10.170;2023-05-07T11:26:07;12.50;99.90
46091;DHT22;31826;53.572;10.170;2023-05-07T11:28:41;12.50;99.90
46091;DHT22;31826;53.572;10.170;2023-05-07T11:31:07;12.70;99.90
46091;DHT22;31826;53.572;10.170;2023-05-07T11:33:34;12.80;99.90
46091;DHT22;31826;53.572;10.170;2023-05-07T11:36:00;13.10;99.90
46091;DHT22;31826;53.572;10.170;2023-05-07T11:38:26;13.10;99.90
46091;DHT22;31826;53.572;10.170;2023-05-07T11:40:53;13.30;99.90
46091;DHT22;31826;53.572;10.170;2023-05-07T11:43:19;13.40;99.90
46091;DHT22;31826;53.572;10.170;2023-05-07T11:45:45;13.40;99.90
46091;DHT22;31826;53.572;10.170;2023-05-07T11:48:13;13.30;99.90
46091;DHT22;31826;53.572;10.170;2023-05-07T11:51:01;13.70;99.90
46091;DHT22;31826;53.572;10.170;2023-05-07T11:53:35;14.20;99.90
46091;DHT22;31826;53.572;10.170;2023-05-07T11:56:05;14.20;99.90
46091;DHT22;31826;53.572;10.170;2023-05-07T11:58:31;14.00;99.90
46091;DHT22;31826;53.572;10.170;2023-05-07T12:00:57;13.80;99.90
46091;DHT22;31826;53.572;10.170;2023-05-07T12:03:23;14.00;99.90
46091;DHT22;31826;53.572;10.170;2023-05-07T12:05:48;14.20;99.90
46091;DHT22;31826;53.572;10.170;2023-05-07T12:08:18;13.80;99.90
46091;DHT22;31826;53.572;10.170;2023-05-07T12:10:46;13.90;99.90
46091;DHT22;31826;53.572;10.170;2023-05-07T12:13:19;14.00;99.90
46091;DHT22;31826;53.572;10.170;2023-05-07T12:15:45;14.30;99.90
46091;DHT22;31826;53.572;10.170;2023-05-07T12:18:12;14.40;99.90
46091;DHT22;31826;53.572;10.170;2023-05-07T12:20:38;14.40;99.90
46091;DHT22;31826;53.572;10.170;2023-05-07T12:23:04;14.50;99.90
46091;DHT22;31826;53.572;10.170;2023-05-07T12:25:34;14.40;99.90
46091;DHT22;31826;53.572;10.170;2023-05-07T12:28:01;14.40;99.90
46091;DHT22;31826;53.572;10.170;2023-05-07T12:30:27;14.60;99.90
46091;DHT22;31826;53.572;10.170;2023-05-07T12:32:54;14.40;99.90
46091;DHT22;31826;53.572;10.170;2023-05-07T12:35:29;14.30;99.90
46091;DHT22;31826;53.572;10.170;2023-05-07T12:37:56;14.40;99.90
46091;DHT22;31826;53.572;10.170;2023-05-07T12:40:24;14.60;99.90
46091;DHT22;31826;53.572;10.170;2023-05-07T12:42:53;14.70;99.90
46091;DHT22;31826;53.572;10.170;2023-05-07T12:45:20;14.60;99.90
46091;DHT22;31826;53.572;10.170;2023-05-07T12:47:46;14.60;99.90
46091;DHT22;31826;53.572;10.170;2023-05-07T12:50:13;14.50;99.90
46091;DHT22;31826;53.572;10.170;2023-05-07T12:52:40;14.50;99.90
46091;DHT22;31826;53.572;10.170;2023-05-07T12:55:08;14.60;99.90
46091;DHT22;31826;53.572;10.170;2023-05-07T12:57:39;14.60;99.90
46091;DHT22;31826;53.572;10.170;2023-05-07T13:00:06;14.60;99.90
46091;DHT22;31826;53.572;10.170;2023-05-07T13:02:33;14.70;99.90
46091;DHT22;31826;53.572;10.170;2023-05-07T13:04:59;14.80;99.90
46091;DHT22;31826;53.572;10.170;2023-05-07T13:07:25;15.10;99.90
46091;DHT22;31826;53.572;10.170;2023-05-07T13:09:51;15.30;99.90
46091;DHT22;31826;53.572;10.170;2023-05-07T13:12:17;15.40;99.90
46091;DHT22;31826;53.572;10.170;2023-05-07T13:14:42;15.30;99.90
46091;DHT22;31826;53.572;10.170;2023-05-07T13:17:08;15.20;99.90
46091;DHT22;31826;53.572;10.170;2023-05-07T13:19:33;15.40;99.90
46091;DHT22;31826;53.572;10.170;2023-05-07T13:21:59;15.30;99.90
46091;DHT22;31826;53.572;10.170;2023-05-07T13:24:25;15.30;99.90
46091;DHT22;31826;53.572;10.170;2023-05-07T13:26:51;15.30;99.90
46091;DHT22;31826;53.572;10.170;2023-05-07T13:29:16;15.80;99.90
46091;DHT22;31826;53.572;10.170;2023-05-07T13:31:42;16.20;99.50
46091;DHT22;31826;53.572;10.170;2023-05-07T13:34:09;16.70;99.20
46091;DHT22;31826;53.572;10.170;2023-05-07T13:36:35;16.60;98.00
46091;DHT22;31826;53.572;10.170;2023-05-07T13:39:03;16.60;98.30
46091;DHT22;31826;53.572;10.170;2023-05-07T13:41:29;16.20;97.70
46091;DHT22;31826;53.572;10.170;2023-05-07T13:43:55;16.10;98.00
46091;DHT22;31826;53.572;10.170;2023-05-07T13:46:21;15.90;98.00
46091;DHT22;31826;53.572;10.170;2023-05-07T13:48:47;16.10;98.40
46091;DHT22;31826;53.572;10.170;2023-05-07T13:51:13;16.10;98.20
46091;DHT22;31826;53.572;10.170;2023-05-07T13:53:38;16.30;98.00
46091;DHT22;31826;53.572;10.170;2023-05-07T13:56:04;16.30;97.60
46091;DHT22;31826;53.572;10.170;2023-05-07T13:58:30;16.50;97.10
46091;DHT22;31826;53.572;10.170;2023-05-07T14:00:56;16.80;96.90
46091;DHT22;31826;53.572;10.170;2023-05-07T14:03:21;16.80;96.90
46091;DHT22;31826;53.572;10.170;2023-05-07T14:05:47;17.10;96.30
46091;DHT22;31826;53.572;10.170;2023-05-07T14:08:13;17.00;96.70
46091;DHT22;31826;53.572;10.170;2023-05-07T14:10:40;17.10;97.00
46091;DHT22;31826;53.572;10.170;2023-05-07T14:13:05;17.30;95.40
46091;DHT22;31826;53.572;10.170;2023-05-07T14:15:31;17.00;95.60
46091;DHT22;31826;53.572;10.170;2023-05-07T14:18:00;17.00;96.20
46091;DHT22;31826;53.572;10.170;2023-05-07T14:20:26;17.00;95.90
46091;DHT22;31826;53.572;10.170;2023-05-07T14:22:51;17.10;95.90
46091;DHT22;31826;53.572;10.170;2023-05-07T14:25:17;17.10;96.20
46091;DHT22;31826;53.572;10.170;2023-05-07T14:27:43;17.00;95.80
46091;DHT22;31826;53.572;10.170;2023-05-07T14:30:09;17.40;96.50
46091;DHT22;31826;53.572;10.170;2023-05-07T14:32:35;17.80;95.50
46091;DHT22;31826;53.572;10.170;2023-05-07T14:35:01;18.00;94.70
46091;DHT22;31826;53.572;10.170;2023-05-07T14:37:26;17.80;95.00
46091;DHT22;31826;53.572;10.170;2023-05-07T14:39:52;17.40;95.20
46091;DHT22;31826;53.572;10.170;2023-05-07T14:42:18;17.00;95.10
46091;DHT22;31826;53.572;10.170;2023-05-07T14:44:43;16.60;95.90
46091;DHT22;31826;53.572;10.170;2023-05-07T14:47:10;16.20;96.50
46091;DHT22;31826;53.572;10.170;2023-05-07T14:49:36;16.30;97.40
46091;DHT22;31826;53.572;10.170;2023-05-07T14:52:02;16.20;96.80
46091;DHT22;31826;53.572;10.170;2023-05-07T14:54:27;16.20;97.10
46091;DHT22;31826;53.572;10.170;2023-05-07T14:56:53;16.00;96.80
46091;DHT22;31826;53.572;10.170;2023-05-07T14:59:19;15.90;97.00
46091;DHT22;31826;53.572;10.170;2023-05-07T15:01:47;16.00;97.40
46091;DHT22;31826;53.572;10.170;2023-05-07T15:04:13;16.10;97.20
46091;DHT22;31826;53.572;10.170;2023-05-07T15:06:39;16.20;96.90
46091;DHT22;31826;53.572;10.170;2023-05-07T15:09:05;16.30;97.00
46091;DHT22;31826;53.572;10.170;2023-05-07T15:11:30;16.40;96.80
46091;DHT22;31826;53.572;10.170;2023-05-07T15:13:56;16.30;96.20
46091;DHT22;31826;53.572;10.170;2023-05-07T15:16:22;16.00;96.60
46091;DHT22;31826;53.572;10.170;2023-05-07T15:18:48;16.00;97.20
46091;DHT22;31826;53.572;10.170;2023-05-07T15:21:14;15.90;97.10
46091;DHT22;31826;53.572;10.170;2023-05-07T15:23:39;15.90;97.10
46091;DHT22;31826;53.572;10.170;2023-05-07T15:26:06;16.10;97.30
46091;DHT22;31826;53.572;10.170;2023-05-07T15:28:33;16.20;96.90
46091;DHT22;31826;53.572;10.170;2023-05-07T15:30:59;16.30;96.80
46091;DHT22;31826;53.572;10.170;2023-05-07T15:33:25;16.60;96.70
46091;DHT22;31826;53.572;10.170;2023-05-07T15:35:51;16.70;96.70
46091;DHT22;31826;53.572;10.170;2023-05-07T15:38:16;16.70;96.60
46091;DHT22;31826;53.572;10.170;2023-05-07T15:40:42;16.60;96.50
46091;DHT22;31826;53.572;10.170;2023-05-07T15:43:09;16.60;96.10